sensor_id;sensor_type;location;lat;lon;timestamp;temperature;humidity
68217;DHT22;55037;52.354;4.992;2022-08-21T00:00:29;17.60;81.60
68217;DHT22;55037;52.354;4.992;2022-08-21T00:03:03;17.60;81.60
68217;DHT22;55037;52.354;4.992;2022-08-21T00:05:33;17.50;81.60
68217;DHT22;55037;52.354;4.992;2022-08-21T00:08:03;17.50;81.50
68217;DHT22;55037;52.354;4.992;2022-08-21T00:10:31;17.50;81.70
68217;DHT22;55037;52.354;4.992;2022-08-21T00:12:59;17.40;81.90
68217;DHT22;55037;52.354;4.992;2022-08-21T00:15:30;17.50;81.90
68217;DHT22;55037;52.354;4.992;2022-08-21T00:17:59;17.50;81.90
68217;DHT22;55037;52.354;4.992;2022-08-21T00:20:26;17.50;82.00
68217;DHT22;55037;52.354;4.992;2022-08-21T00:22:54;17.50;82.00
68217;DHT22;55037;52.354;4.992;2022-08-21T00:25:24;17.50;82.00
68217;DHT22;55037;52.354;4.992;2022-08-21T00:27:53;17.40;82.00
68217;DHT22;55037;52.354;4.992;2022-08-21T00:30:22;17.40;81.70
68217;DHT22;55037;52.354;4.992;2022-08-21T00:32:51;17.40;82.00
68217;DHT22;55037;52.354;4.992;2022-08-21T00:35:22;17.40;82.10
68217;DHT22;55037;52.354;4.992;2022-08-21T00:37:50;17.30;82.00
68217;DHT22;55037;52.354;4.992;2022-08-21T00:40:25;17.30;81.90
68217;DHT22;55037;52.354;4.992;2022-08-21T00:42:53;17.30;81.90
68217;DHT22;55037;52.354;4.992;2022-08-21T00:45:23;17.20;81.80
68217;DHT22;55037;52.354;4.992;2022-08-21T00:47:51;17.20;82.00
68217;DHT22;55037;52.354;4.992;2022-08-21T00:50:19;17.20;82.20
68217;DHT22;55037;52.354;4.992;2022-08-21T00:52:50;17.20;82.50
68217;DHT22;55037;52.354;4.992;2022-08-21T00:55:18;17.20;82.70
68217;DHT22;55037;52.354;4.992;2022-08-21T00:57:51;17.20;82.80
68217;DHT22;55037;52.354;4.992;2022-08-21T01:00:22;17.20;84.00
68217;DHT22;55037;52.354;4.992;2022-08-21T01:02:50;17.20;83.00
68217;DHT22;55037;52.354;4.992;2022-08-21T01:05:17;17.30;83.00
68217;DHT22;55037;52.354;4.992;2022-08-21T01:07:44;17.30;83.00
68217;DHT22;55037;52.354;4.992;2022-08-21T01:10:12;17.30;83.00
68217;DHT22;55037;52.354;4.992;2022-08-21T01:12:55;17.30;83.00
68217;DHT22;55037;52.354;4.992;2022-08-21T01:15:30;17.30;83.00
68217;DHT22;55037;52.354;4.992;2022-08-21T01:17:57;17.40;81.90
68217;DHT22;55037;52.354;4.992;2022-08-21T01:20:25;17.40;82.60
68217;DHT22;55037;52.354;4.992;2022-08-21T01:23:01;17.50;82.60
68217;DHT22;55037;52.354;4.992;2022-08-21T01:25:28;17.50;82.50
68217;DHT22;55037;52.354;4.992;2022-08-21T01:27:57;17.50;82.60
68217;DHT22;55037;52.354;4.992;2022-08-21T01:30:28;17.60;82.50
68217;DHT22;55037;52.354;4.992;2022-08-21T01:32:56;17.60;82.50
68217;DHT22;55037;52.354;4.992;2022-08-21T01:35:23;17.60;82.30
68217;DHT22;55037;52.354;4.992;2022-08-21T01:37:51;17.60;82.20
68217;DHT22;55037;52.354;4.992;2022-08-21T01:40:18;17.70;82.30
68217;DHT22;55037;52.354;4.992;2022-08-21T01:42:46;17.70;82.10
68217;DHT22;55037;52.354;4.992;2022-08-21T01:45:13;17.70;82.00
68217;DHT22;55037;52.354;4.992;2022-08-21T01:47:42;17.70;82.00
68217;DHT22;55037;52.354;4.992;2022-08-21T01:50:12;17.70;82.00
68217;DHT22;55037;52.354;4.992;2022-08-21T01:52:40;17.70;81.90
68217;DHT22;55037;52.354;4.992;2022-08-21T01:55:09;17.80;82.90
68217;DHT22;55037;52.354;4.992;2022-08-21T01:57:37;17.80;81.80
68217;DHT22;55037;52.354;4.992;2022-08-21T02:00:08;17.80;81.90
68217;DHT22;55037;52.354;4.992;2022-08-21T02:02:41;17.80;81.90
68217;DHT22;55037;52.354;4.992;2022-08-21T02:05:10;17.80;81.80
68217;DHT22;55037;52.354;4.992;2022-08-21T02:07:40;17.80;81.20
68217;DHT22;55037;52.354;4.992;2022-08-21T02:10:09;17.70;81.90
68217;DHT22;55037;52.354;4.992;2022-08-21T02:12:37;17.80;81.90
68217;DHT22;55037;52.354;4.992;2022-08-21T02:15:06;17.80;82.00
68217;DHT22;55037;52.354;4.992;2022-08-21T02:17:47;17.70;82.10
68217;DHT22;55037;52.354;4.992;2022-08-21T02:20:21;17.70;82.10
68217;DHT22;55037;52.354;4.992;2022-08-21T02:22:49;17.70;82.30
68217;DHT22;55037;52.354;4.992;2022-08-21T02:25:18;17.70;82.40
68217;DHT22;55037;52.354;4.992;2022-08-21T02:27:46;17.70;82.40
68217;DHT22;55037;52.354;4.992;2022-08-21T02:30:24;17.70;82.60
68217;DHT22;55037;52.354;4.992;2022-08-21T02:32:51;17.70;82.90
68217;DHT22;55037;52.354;4.992;2022-08-21T02:35:19;17.60;83.10
68217;DHT22;55037;52.354;4.992;2022-08-21T02:40:21;17.50;83.50
68217;DHT22;55037;52.354;4.992;2022-08-21T02:42:49;17.50;83.60
68217;DHT22;55037;52.354;4.992;2022-08-21T02:45:17;17.40;83.90
68217;DHT22;55037;52.354;4.992;2022-08-21T02:47:49;17.40;84.20
68217;DHT22;55037;52.354;4.992;2022-08-21T02:50:20;17.40;84.50
68217;DHT22;55037;52.354;4.992;2022-08-21T02:52:48;17.30;84.80
68217;DHT22;55037;52.354;4.992;2022-08-21T02:55:23;17.30;85.20
68217;DHT22;55037;52.354;4.992;2022-08-21T02:57:50;17.20;85.40
68217;DHT22;55037;52.354;4.992;2022-08-21T03:00:18;17.20;85.70
68217;DHT22;55037;52.354;4.992;2022-08-21T03:02:48;17.10;85.90
68217;DHT22;55037;52.354;4.992;2022-08-21T03:05:17;17.10;86.20
68217;DHT22;55037;52.354;4.992;2022-08-21T03:07:46;17.00;86.10
68217;DHT22;55037;52.354;4.992;2022-08-21T03:10:14;17.00;86.90
68217;DHT22;55037;52.354;4.992;2022-08-21T03:12:42;16.90;87.00
68217;DHT22;55037;52.354;4.992;2022-08-21T03:15:12;16.90;87.40
68217;DHT22;55037;52.354;4.992;2022-08-21T03:17:40;16.90;87.60
68217;DHT22;55037;52.354;4.992;2022-08-21T03:20:08;16.90;87.80
68217;DHT22;55037;52.354;4.992;2022-08-21T03:22:36;16.80;88.00
68217;DHT22;55037;52.354;4.992;2022-08-21T03:25:03;16.80;88.30
68217;DHT22;55037;52.354;4.992;2022-08-21T03:27:33;16.80;88.40
68217;DHT22;55037;52.354;4.992;2022-08-21T03:30:02;16.80;88.70
68217;DHT22;55037;52.354;4.992;2022-08-21T03:32:30;16.80;88.70
68217;DHT22;55037;52.354;4.992;2022-08-21T03:34:59;16.80;88.80
68217;DHT22;55037;52.354;4.992;2022-08-21T03:37:27;16.80;88.80
68217;DHT22;55037;52.354;4.992;2022-08-21T03:39:55;16.80;88.80
68217;DHT22;55037;52.354;4.992;2022-08-21T03:42:22;16.80;88.90
68217;DHT22;55037;52.354;4.992;2022-08-21T03:44:50;16.70;88.90
68217;DHT22;55037;52.354;4.992;2022-08-21T03:47:17;16.70;88.90
68217;DHT22;55037;52.354;4.992;2022-08-21T03:49:44;16.70;88.90
68217;DHT22;55037;52.354;4.992;2022-08-21T03:52:12;16.70;89.10
68217;DHT22;55037;52.354;4.992;2022-08-21T03:54:39;16.70;89.20
68217;DHT22;55037;52.354;4.992;2022-08-21T03:57:09;16.60;89.30
68217;DHT22;55037;52.354;4.992;2022-08-21T03:59:37;16.60;89.50
68217;DHT22;55037;52.354;4.992;2022-08-21T04:02:06;16.50;89.70
68217;DHT22;55037;52.354;4.992;2022-08-21T04:04:35;16.50;89.80
68217;DHT22;55037;52.354;4.992;2022-08-21T04:07:03;16.50;90.40
68217;DHT22;55037;52.354;4.992;2022-08-21T04:09:30;16.50;90.10
68217;DHT22;55037;52.354;4.992;2022-08-21T04:11:58;16.50;90.10
68217;DHT22;55037;52.354;4.992;2022-08-21T04:14:26;16.40;90.10
68217;DHT22;55037;52.354;4.992;2022-08-21T04:16:53;16.40;90.10
68217;DHT22;55037;52.354;4.992;2022-08-21T04:19:21;16.40;90.20
68217;DHT22;55037;52.354;4.992;2022-08-21T04:21:48;16.40;90.60
68217;DHT22;55037;52.354;4.992;2022-08-21T04:24:18;16.40;90.20
68217;DHT22;55037;52.354;4.992;2022-08-21T04:26:46;16.40;90.20
68217;DHT22;55037;52.354;4.992;2022-08-21T04:29:14;16.30;89.70
68217;DHT22;55037;52.354;4.992;2022-08-21T04:31:41;16.40;90.20
68217;DHT22;55037;52.354;4.992;2022-08-21T04:34:10;16.30;90.30
68217;DHT22;55037;52.354;4.992;2022-08-21T04:36:37;16.30;90.40
68217;DHT22;55037;52.354;4.992;2022-08-21T04:39:04;16.30;90.40
68217;DHT22;55037;52.354;4.992;2022-08-21T04:41:36;16.30;90.40
68217;DHT22;55037;52.354;4.992;2022-08-21T04:44:04;16.30;90.50
68217;DHT22;55037;52.354;4.992;2022-08-21T04:46:31;16.40;90.40
68217;DHT22;55037;52.354;4.992;2022-08-21T04:48:58;16.40;90.40
68217;DHT22;55037;52.354;4.992;2022-08-21T04:51:30;16.40;90.40
68217;DHT22;55037;52.354;4.992;2022-08-21T04:54:02;16.40;90.30
68217;DHT22;55037;52.354;4.992;2022-08-21T04:56:56;16.40;90.20
68217;DHT22;55037;52.354;4.992;2022-08-21T04:59:30;16.50;90.20
68217;DHT22;55037;52.354;4.992;2022-08-21T05:02:02;16.50;90.10
68217;DHT22;55037;52.354;4.992;2022-08-21T05:04:32;16.60;89.90
68217;DHT22;55037;52.354;4.992;2022-08-21T05:07:04;16.60;89.60
68217;DHT22;55037;52.354;4.992;2022-08-21T05:09:33;16.70;88.40
68217;DHT22;55037;52.354;4.992;2022-08-21T05:12:02;16.80;89.00
68217;DHT22;55037;52.354;4.992;2022-08-21T05:14:29;16.80;88.50
68217;DHT22;55037;52.354;4.992;2022-08-21T05:16:56;16.90;87.90
68217;DHT22;55037;52.354;4.992;2022-08-21T05:19:24;16.90;87.30
68217;DHT22;55037;52.354;4.992;2022-08-21T05:21:52;17.00;86.60
68217;DHT22;55037;52.354;4.992;2022-08-21T05:24:19;17.10;86.20
68217;DHT22;55037;52.354;4.992;2022-08-21T05:26:46;17.10;85.80
68217;DHT22;55037;52.354;4.992;2022-08-21T05:29:16;17.20;85.60
68217;DHT22;55037;52.354;4.992;2022-08-21T05:31:46;17.30;85.30
68217;DHT22;55037;52.354;4.992;2022-08-21T05:34:17;17.30;85.10
68217;DHT22;55037;52.354;4.992;2022-08-21T05:36:45;17.30;84.80
68217;DHT22;55037;52.354;4.992;2022-08-21T05:39:12;17.40;84.60
68217;DHT22;55037;52.354;4.992;2022-08-21T05:41:40;17.40;84.40
68217;DHT22;55037;52.354;4.992;2022-08-21T05:44:07;17.50;84.10
68217;DHT22;55037;52.354;4.992;2022-08-21T05:46:37;17.50;83.70
68217;DHT22;55037;52.354;4.992;2022-08-21T05:49:05;17.60;83.50
68217;DHT22;55037;52.354;4.992;2022-08-21T05:51:32;17.60;83.50
68217;DHT22;55037;52.354;4.992;2022-08-21T05:53:59;17.70;83.40
68217;DHT22;55037;52.354;4.992;2022-08-21T05:56:27;17.70;83.20
68217;DHT22;55037;52.354;4.992;2022-08-21T05:58:54;17.80;83.10
68217;DHT22;55037;52.354;4.992;2022-08-21T06:01:22;17.90;83.00
68217;DHT22;55037;52.354;4.992;2022-08-21T06:03:49;17.90;82.40
68217;DHT22;55037;52.354;4.992;2022-08-21T06:06:17;17.90;82.50
68217;DHT22;55037;52.354;4.992;2022-08-21T06:08:44;18.00;82.00
68217;DHT22;55037;52.354;4.992;2022-08-21T06:11:12;18.00;82.60
68217;DHT22;55037;52.354;4.992;2022-08-21T06:13:39;18.00;82.20
68217;DHT22;55037;52.354;4.992;2022-08-21T06:16:13;18.10;82.30
68217;DHT22;55037;52.354;4.992;2022-08-21T06:18:43;18.10;82.00
68217;DHT22;55037;52.354;4.992;2022-08-21T06:21:11;18.10;82.20
68217;DHT22;55037;52.354;4.992;2022-08-21T06:23:41;18.20;82.10
68217;DHT22;55037;52.354;4.992;2022-08-21T06:26:09;18.30;82.00
68217;DHT22;55037;52.354;4.992;2022-08-21T06:28:36;18.40;80.70
68217;DHT22;55037;52.354;4.992;2022-08-21T06:31:30;18.50;81.60
68217;DHT22;55037;52.354;4.992;2022-08-21T06:33:57;18.50;81.00
68217;DHT22;55037;52.354;4.992;2022-08-21T06:36:25;18.60;80.80
68217;DHT22;55037;52.354;4.992;2022-08-21T06:38:52;18.60;80.60
68217;DHT22;55037;52.354;4.992;2022-08-21T06:41:20;18.60;81.00
68217;DHT22;55037;52.354;4.992;2022-08-21T06:43:53;18.70;80.70
68217;DHT22;55037;52.354;4.992;2022-08-21T06:46:22;18.80;80.50
68217;DHT22;55037;52.354;4.992;2022-08-21T06:48:50;18.80;80.30
68217;DHT22;55037;52.354;4.992;2022-08-21T06:51:17;18.90;80.30
68217;DHT22;55037;52.354;4.992;2022-08-21T06:53:44;18.90;80.70
68217;DHT22;55037;52.354;4.992;2022-08-21T06:56:12;19.00;80.40
68217;DHT22;55037;52.354;4.992;2022-08-21T06:58:39;19.10;79.70
68217;DHT22;55037;52.354;4.992;2022-08-21T07:01:07;19.20;80.00
68217;DHT22;55037;52.354;4.992;2022-08-21T07:03:37;19.20;79.70
68217;DHT22;55037;52.354;4.992;2022-08-21T07:06:06;19.30;79.70
68217;DHT22;55037;52.354;4.992;2022-08-21T07:08:34;19.40;79.20
68217;DHT22;55037;52.354;4.992;2022-08-21T07:11:07;19.50;79.90
68217;DHT22;55037;52.354;4.992;2022-08-21T07:13:36;19.60;79.20
68217;DHT22;55037;52.354;4.992;2022-08-21T07:16:03;19.70;79.20
68217;DHT22;55037;52.354;4.992;2022-08-21T07:18:31;19.90;78.50
68217;DHT22;55037;52.354;4.992;2022-08-21T07:21:01;19.90;78.00
68217;DHT22;55037;52.354;4.992;2022-08-21T07:23:48;19.90;78.10
68217;DHT22;55037;52.354;4.992;2022-08-21T07:26:18;20.00;78.20
68217;DHT22;55037;52.354;4.992;2022-08-21T07:28:48;20.10;77.00
68217;DHT22;55037;52.354;4.992;2022-08-21T07:31:17;20.20;77.60
68217;DHT22;55037;52.354;4.992;2022-08-21T07:33:45;20.30;77.50
68217;DHT22;55037;52.354;4.992;2022-08-21T07:36:12;20.40;77.50
68217;DHT22;55037;52.354;4.992;2022-08-21T07:38:40;20.60;77.20
68217;DHT22;55037;52.354;4.992;2022-08-21T07:41:14;20.70;76.80
68217;DHT22;55037;52.354;4.992;2022-08-21T07:43:42;21.00;76.30
68217;DHT22;55037;52.354;4.992;2022-08-21T07:46:12;21.10;75.00
68217;DHT22;55037;52.354;4.992;2022-08-21T07:48:40;21.20;74.70
68217;DHT22;55037;52.354;4.992;2022-08-21T07:51:11;21.30;74.20
68217;DHT22;55037;52.354;4.992;2022-08-21T07:53:39;21.50;73.80
68217;DHT22;55037;52.354;4.992;2022-08-21T07:56:08;21.50;73.20
68217;DHT22;55037;52.354;4.992;2022-08-21T07:58:37;21.50;73.00
68217;DHT22;55037;52.354;4.992;2022-08-21T08:01:06;21.70;73.40
68217;DHT22;55037;52.354;4.992;2022-08-21T08:03:33;21.70;72.10
68217;DHT22;55037;52.354;4.992;2022-08-21T08:06:08;21.90;72.00
68217;DHT22;55037;52.354;4.992;2022-08-21T08:08:40;22.10;71.70
68217;DHT22;55037;52.354;4.992;2022-08-21T08:11:09;22.30;70.50
68217;DHT22;55037;52.354;4.992;2022-08-21T08:13:40;22.30;70.00
68217;DHT22;55037;52.354;4.992;2022-08-21T08:16:07;22.30;70.20
68217;DHT22;55037;52.354;4.992;2022-08-21T08:18:35;22.40;70.30
68217;DHT22;55037;52.354;4.992;2022-08-21T08:21:03;22.80;69.40
68217;DHT22;55037;52.354;4.992;2022-08-21T08:23:30;23.10;68.00
68217;DHT22;55037;52.354;4.992;2022-08-21T08:25:59;23.30;67.00
68217;DHT22;55037;52.354;4.992;2022-08-21T08:28:26;23.30;66.40
68217;DHT22;55037;52.354;4.992;2022-08-21T08:30:54;23.50;66.50
68217;DHT22;55037;52.354;4.992;2022-08-21T08:33:22;24.00;65.20
68217;DHT22;55037;52.354;4.992;2022-08-21T08:35:50;24.40;63.60
68217;DHT22;55037;52.354;4.992;2022-08-21T08:38:19;24.40;62.10
68217;DHT22;55037;52.354;4.992;2022-08-21T08:43:34;24.40;62.40
68217;DHT22;55037;52.354;4.992;2022-08-21T08:46:06;24.50;62.00
68217;DHT22;55037;52.354;4.992;2022-08-21T08:48:54;24.50;61.70
68217;DHT22;55037;52.354;4.992;2022-08-21T08:51:44;24.80;61.80
68217;DHT22;55037;52.354;4.992;2022-08-21T08:54:15;25.90;59.10
68217;DHT22;55037;52.354;4.992;2022-08-21T08:56:45;26.50;56.10
68217;DHT22;55037;52.354;4.992;2022-08-21T08:59:20;26.60;54.40
68217;DHT22;55037;52.354;4.992;2022-08-21T09:01:50;26.70;53.80
68217;DHT22;55037;52.354;4.992;2022-08-21T09:04:23;26.80;53.30
68217;DHT22;55037;52.354;4.992;2022-08-21T09:07:10;26.80;53.50
68217;DHT22;55037;52.354;4.992;2022-08-21T09:10:05;26.80;51.60
68217;DHT22;55037;52.354;4.992;2022-08-21T09:15:30;26.20;53.80
68217;DHT22;55037;52.354;4.992;2022-08-21T09:21:09;28.00;47.20
68217;DHT22;55037;52.354;4.992;2022-08-21T09:24:06;27.80;46.80
68217;DHT22;55037;52.354;4.992;2022-08-21T09:27:01;27.40;46.40
68217;DHT22;55037;52.354;4.992;2022-08-21T09:29:33;26.30;49.40
68217;DHT22;55037;52.354;4.992;2022-08-21T09:32:04;25.50;51.80
68217;DHT22;55037;52.354;4.992;2022-08-21T09:34:36;25.70;54.70
68217;DHT22;55037;52.354;4.992;2022-08-21T09:37:03;27.70;48.40
68217;DHT22;55037;52.354;4.992;2022-08-21T09:39:39;29.70;42.70
68217;DHT22;55037;52.354;4.992;2022-08-21T09:42:11;31.30;38.50
68217;DHT22;55037;52.354;4.992;2022-08-21T09:44:47;33.80;33.60
68217;DHT22;55037;52.354;4.992;2022-08-21T09:47:18;35.80;28.50
68217;DHT22;55037;52.354;4.992;2022-08-21T09:49:52;35.90;27.10
68217;DHT22;55037;52.354;4.992;2022-08-21T09:52:22;34.80;27.40
68217;DHT22;55037;52.354;4.992;2022-08-21T09:54:54;33.60;29.80
68217;DHT22;55037;52.354;4.992;2022-08-21T09:57:27;34.60;29.30
68217;DHT22;55037;52.354;4.992;2022-08-21T10:00:28;36.70;26.40
68217;DHT22;55037;52.354;4.992;2022-08-21T10:06:38;39.50;23.50
68217;DHT22;55037;52.354;4.992;2022-08-21T10:08:45;39.80;22.70
68217;DHT22;55037;52.354;4.992;2022-08-21T10:11:15;38.90;23.00
68217;DHT22;55037;52.354;4.992;2022-08-21T10:24:55;35.90;25.90
68217;DHT22;55037;52.354;4.992;2022-08-21T10:30:07;34.20;28.40
68217;DHT22;55037;52.354;4.992;2022-08-21T10:35:30;33.00;28.70
68217;DHT22;55037;52.354;4.992;2022-08-21T10:41:40;29.30;33.90
68217;DHT22;55037;52.354;4.992;2022-08-21T10:47:06;27.00;37.30
68217;DHT22;55037;52.354;4.992;2022-08-21T10:56:02;36.30;24.90
68217;DHT22;55037;52.354;4.992;2022-08-21T10:58:12;39.10;22.00
68217;DHT22;55037;52.354;4.992;2022-08-21T11:00:43;41.00;19.80
68217;DHT22;55037;52.354;4.992;2022-08-21T11:03:18;41.60;19.00
68217;DHT22;55037;52.354;4.992;2022-08-21T11:05:52;42.90;17.90
68217;DHT22;55037;52.354;4.992;2022-08-21T11:08:57;42.20;17.60
68217;DHT22;55037;52.354;4.992;2022-08-21T11:11:31;40.30;19.30
68217;DHT22;55037;52.354;4.992;2022-08-21T11:14:25;41.20;17.70
68217;DHT22;55037;52.354;4.992;2022-08-21T11:17:02;42.30;17.10
68217;DHT22;55037;52.354;4.992;2022-08-21T11:19:52;43.60;16.60
68217;DHT22;55037;52.354;4.992;2022-08-21T11:22:46;44.10;15.70
68217;DHT22;55037;52.354;4.992;2022-08-21T11:25:29;43.70;15.60
68217;DHT22;55037;52.354;4.992;2022-08-21T11:28:17;42.00;16.90
68217;DHT22;55037;52.354;4.992;2022-08-21T11:31:20;39.40;19.00
68217;DHT22;55037;52.354;4.992;2022-08-21T11:34:16;38.50;20.10
68217;DHT22;55037;52.354;4.992;2022-08-21T11:37:01;39.50;19.20
68217;DHT22;55037;52.354;4.992;2022-08-21T11:40:04;39.50;18.20
68217;DHT22;55037;52.354;4.992;2022-08-21T11:42:42;36.30;21.70
68217;DHT22;55037;52.354;4.992;2022-08-21T11:48:13;35.70;23.10
68217;DHT22;55037;52.354;4.992;2022-08-21T11:50:44;37.50;22.30
68217;DHT22;55037;52.354;4.992;2022-08-21T11:58:19;37.20;21.00
68217;DHT22;55037;52.354;4.992;2022-08-21T12:00:54;35.50;22.90
68217;DHT22;55037;52.354;4.992;2022-08-21T12:03:40;37.80;21.60
68217;DHT22;55037;52.354;4.992;2022-08-21T12:06:12;40.10;18.90
68217;DHT22;55037;52.354;4.992;2022-08-21T12:08:42;41.60;17.90
68217;DHT22;55037;52.354;4.992;2022-08-21T12:11:30;42.40;16.30
68217;DHT22;55037;52.354;4.992;2022-08-21T12:16:36;39.90;18.60
68217;DHT22;55037;52.354;4.992;2022-08-21T12:19:05;39.30;19.00
68217;DHT22;55037;52.354;4.992;2022-08-21T12:21:33;38.40;19.90
68217;DHT22;55037;52.354;4.992;2022-08-21T12:26:52;35.80;22.70
68217;DHT22;55037;52.354;4.992;2022-08-21T12:34:40;33.50;26.10
68217;DHT22;55037;52.354;4.992;2022-08-21T12:39:52;33.20;25.90
68217;DHT22;55037;52.354;4.992;2022-08-21T12:42:23;33.90;26.10
68217;DHT22;55037;52.354;4.992;2022-08-21T12:44:55;37.50;22.20
68217;DHT22;55037;52.354;4.992;2022-08-21T12:47:32;38.00;20.10
68217;DHT22;55037;52.354;4.992;2022-08-21T12:50:06;37.20;21.40
68217;DHT22;55037;52.354;4.992;2022-08-21T12:52:40;38.10;21.50
68217;DHT22;55037;52.354;4.992;2022-08-21T12:55:13;38.10;20.30
68217;DHT22;55037;52.354;4.992;2022-08-21T12:57:42;35.60;22.50
68217;DHT22;55037;52.354;4.992;2022-08-21T13:00:12;33.70;25.70
68217;DHT22;55037;52.354;4.992;2022-08-21T13:02:47;35.40;24.90
68217;DHT22;55037;52.354;4.992;2022-08-21T13:05:26;38.50;21.30
68217;DHT22;55037;52.354;4.992;2022-08-21T13:07:54;37.80;21.10
68217;DHT22;55037;52.354;4.992;2022-08-21T13:10:26;36.30;22.40
68217;DHT22;55037;52.354;4.992;2022-08-21T13:12:56;37.00;22.70
68217;DHT22;55037;52.354;4.992;2022-08-21T13:15:31;38.70;20.70
68217;DHT22;55037;52.354;4.992;2022-08-21T13:18:01;38.30;20.50
68217;DHT22;55037;52.354;4.992;2022-08-21T13:20:40;37.50;20.90
68217;DHT22;55037;52.354;4.992;2022-08-21T13:23:26;37.70;21.70
68217;DHT22;55037;52.354;4.992;2022-08-21T13:25:55;37.20;21.60
68217;DHT22;55037;52.354;4.992;2022-08-21T13:28:23;36.10;23.00
68217;DHT22;55037;52.354;4.992;2022-08-21T13:30:53;36.80;22.60
68217;DHT22;55037;52.354;4.992;2022-08-21T13:33:25;38.00;21.40
68217;DHT22;55037;52.354;4.992;2022-08-21T13:38:41;38.10;20.60
68217;DHT22;55037;52.354;4.992;2022-08-21T13:41:27;36.30;22.10
68217;DHT22;55037;52.354;4.992;2022-08-21T13:44:14;34.00;24.60
68217;DHT22;55037;52.354;4.992;2022-08-21T13:46:48;32.60;26.20
68217;DHT22;55037;52.354;4.992;2022-08-21T13:49:18;32.20;27.80
68217;DHT22;55037;52.354;4.992;2022-08-21T13:51:46;32.60;27.50
68217;DHT22;55037;52.354;4.992;2022-08-21T13:54:26;32.50;27.00
68217;DHT22;55037;52.354;4.992;2022-08-21T13:56:55;32.00;27.70
68217;DHT22;55037;52.354;4.992;2022-08-21T13:59:32;31.90;28.00
68217;DHT22;55037;52.354;4.992;2022-08-21T14:02:13;31.90;28.90
68217;DHT22;55037;52.354;4.992;2022-08-21T14:07:36;32.70;27.10
68217;DHT22;55037;52.354;4.992;2022-08-21T14:10:13;32.10;27.50
68217;DHT22;55037;52.354;4.992;2022-08-21T14:12:47;31.00;28.20
68217;DHT22;55037;52.354;4.992;2022-08-21T14:15:17;29.80;30.00
68217;DHT22;55037;52.354;4.992;2022-08-21T14:17:45;28.90;31.10
68217;DHT22;55037;52.354;4.992;2022-08-21T14:20:28;28.90;32.10
68217;DHT22;55037;52.354;4.992;2022-08-21T14:22:57;29.00;32.80
68217;DHT22;55037;52.354;4.992;2022-08-21T14:28:03;29.80;31.40
68217;DHT22;55037;52.354;4.992;2022-08-21T14:30:41;30.10;31.00
68217;DHT22;55037;52.354;4.992;2022-08-21T14:33:12;30.80;29.70
68217;DHT22;55037;52.354;4.992;2022-08-21T14:35:40;31.10;28.90
68217;DHT22;55037;52.354;4.992;2022-08-21T14:38:15;31.00;29.50
68217;DHT22;55037;52.354;4.992;2022-08-21T14:40:46;30.80;29.20
68217;DHT22;55037;52.354;4.992;2022-08-21T14:43:13;30.70;29.30
68217;DHT22;55037;52.354;4.992;2022-08-21T14:45:41;30.30;30.00
68217;DHT22;55037;52.354;4.992;2022-08-21T14:48:08;29.90;29.70
68217;DHT22;55037;52.354;4.992;2022-08-21T14:50:35;29.90;30.80
68217;DHT22;55037;52.354;4.992;2022-08-21T14:53:02;30.00;30.60
68217;DHT22;55037;52.354;4.992;2022-08-21T14:55:38;29.90;31.00
68217;DHT22;55037;52.354;4.992;2022-08-21T14:58:25;29.90;31.00
68217;DHT22;55037;52.354;4.992;2022-08-21T15:00:54;29.80;30.80
68217;DHT22;55037;52.354;4.992;2022-08-21T15:03:21;29.40;31.30
68217;DHT22;55037;52.354;4.992;2022-08-21T15:05:49;29.10;32.20
68217;DHT22;55037;52.354;4.992;2022-08-21T15:08:17;27.50;32.00
68217;DHT22;55037;52.354;4.992;2022-08-21T15:10:45;28.40;33.90
68217;DHT22;55037;52.354;4.992;2022-08-21T15:13:32;28.20;34.90
68217;DHT22;55037;52.354;4.992;2022-08-21T15:16:00;28.60;34.40
68217;DHT22;55037;52.354;4.992;2022-08-21T15:18:30;29.00;33.60
68217;DHT22;55037;52.354;4.992;2022-08-21T15:20:58;29.10;32.40
68217;DHT22;55037;52.354;4.992;2022-08-21T15:23:25;28.60;33.50
68217;DHT22;55037;52.354;4.992;2022-08-21T15:25:52;28.30;34.60
68217;DHT22;55037;52.354;4.992;2022-08-21T15:28:20;28.50;34.60
68217;DHT22;55037;52.354;4.992;2022-08-21T15:30:48;28.50;34.30
68217;DHT22;55037;52.354;4.992;2022-08-21T15:33:16;28.60;33.80
68217;DHT22;55037;52.354;4.992;2022-08-21T15:35:44;28.60;34.00
68217;DHT22;55037;52.354;4.992;2022-08-21T15:38:13;29.00;33.60
68217;DHT22;55037;52.354;4.992;2022-08-21T15:40:42;29.30;32.50
68217;DHT22;55037;52.354;4.992;2022-08-21T15:45:59;29.50;32.00
68217;DHT22;55037;52.354;4.992;2022-08-21T15:48:27;29.40;32.10
68217;DHT22;55037;52.354;4.992;2022-08-21T15:50:54;29.40;31.90
68217;DHT22;55037;52.354;4.992;2022-08-21T15:53:22;29.50;31.80
68217;DHT22;55037;52.354;4.992;2022-08-21T15:55:49;29.50;31.90
68217;DHT22;55037;52.354;4.992;2022-08-21T15:58:17;29.70;31.90
68217;DHT22;55037;52.354;4.992;2022-08-21T16:00:46;29.90;31.20
68217;DHT22;55037;52.354;4.992;2022-08-21T16:03:16;29.80;30.90
68217;DHT22;55037;52.354;4.992;2022-08-21T16:05:44;30.20;30.90
68217;DHT22;55037;52.354;4.992;2022-08-21T16:08:12;30.70;29.40
68217;DHT22;55037;52.354;4.992;2022-08-21T16:10:40;30.80;29.90
68217;DHT22;55037;52.354;4.992;2022-08-21T16:13:15;31.50;28.90
68217;DHT22;55037;52.354;4.992;2022-08-21T16:15:43;31.90;27.80
68217;DHT22;55037;52.354;4.992;2022-08-21T16:18:10;31.60;28.10
68217;DHT22;55037;52.354;4.992;2022-08-21T16:20:38;30.70;29.30
68217;DHT22;55037;52.354;4.992;2022-08-21T16:23:05;29.80;30.70
68217;DHT22;55037;52.354;4.992;2022-08-21T16:25:36;29.30;32.50
68217;DHT22;55037;52.354;4.992;2022-08-21T16:28:08;29.20;32.70
68217;DHT22;55037;52.354;4.992;2022-08-21T16:30:38;29.50;31.70
68217;DHT22;55037;52.354;4.992;2022-08-21T16:33:05;29.60;30.40
68217;DHT22;55037;52.354;4.992;2022-08-21T16:35:36;29.50;30.80
68217;DHT22;55037;52.354;4.992;2022-08-21T16:38:04;28.90;31.20
68217;DHT22;55037;52.354;4.992;2022-08-21T16:40:31;28.50;32.30
68217;DHT22;55037;52.354;4.992;2022-08-21T16:42:58;28.40;33.50
68217;DHT22;55037;52.354;4.992;2022-08-21T16:45:26;28.30;33.50
68217;DHT22;55037;52.354;4.992;2022-08-21T16:47:59;28.40;32.10
68217;DHT22;55037;52.354;4.992;2022-08-21T16:50:26;28.40;32.80
68217;DHT22;55037;52.354;4.992;2022-08-21T16:52:54;28.90;33.30
68217;DHT22;55037;52.354;4.992;2022-08-21T16:55:21;29.60;31.30
68217;DHT22;55037;52.354;4.992;2022-08-21T16:57:49;30.10;30.90
68217;DHT22;55037;52.354;4.992;2022-08-21T17:00:16;30.00;29.80
68217;DHT22;55037;52.354;4.992;2022-08-21T17:02:47;29.70;30.30
68217;DHT22;55037;52.354;4.992;2022-08-21T17:05:15;29.60;30.50
68217;DHT22;55037;52.354;4.992;2022-08-21T17:07:43;29.20;30.60
68217;DHT22;55037;52.354;4.992;2022-08-21T17:10:13;28.40;31.80